createdAt,value
2018-09-17T00:01:30.827Z,14.90
2018-09-17T00:04:01.090Z,14.90
2018-09-17T00:06:30.348Z,15.00
2018-09-17T00:09:01.798Z,15.00
2018-09-17T00:11:31.003Z,14.90
2018-09-17T00:13:59.642Z,14.90
2018-09-17T00:16:28.504Z,14.80
2018-09-17T00:18:57.241Z,14.80
2018-09-17T00:21:25.894Z,14.70
2018-09-17T00:23:55.508Z,14.80
2018-09-17T00:26:24.671Z,14.70
2018-09-17T00:28:54.806Z,14.70
2018-09-17T00:31:25.242Z,14.70
2018-09-17T00:33:54.545Z,14.70
2018-09-17T00:36:23.553Z,14.70
2018-09-17T00:38:52.717Z,14.70
2018-09-17T00:41:21.432Z,14.60
2018-09-17T00:43:50.435Z,14.60
2018-09-17T00:46:19.780Z,14.50
2018-09-17T00:48:48.463Z,14.40
2018-09-17T00:51:18.815Z,14.40
2018-09-17T00:53:48.103Z,14.40
2018-09-17T00:56:16.846Z,14.40
2018-09-17T00:58:46.296Z,14.30
2018-09-17T01:01:15.008Z,14.40
2018-09-17T01:03:45.792Z,14.30
2018-09-17T01:06:15.309Z,14.30
2018-09-17T01:08:44.566Z,14.30
2018-09-17T01:11:13.909Z,14.20
2018-09-17T01:13:42.628Z,14.20
2018-09-17T01:16:11.651Z,14.30
2018-09-17T01:18:42.184Z,14.30
2018-09-17T01:21:11.472Z,14.40
2018-09-17T01:23:40.216Z,14.50
2018-09-17T01:26:11.060Z,14.40
2018-09-17T01:28:39.749Z,14.40
2018-09-17T01:31:19.278Z,14.40
2018-09-17T01:33:48.080Z,14.30
2018-09-17T01:36:18.876Z,14.30
2018-09-17T01:38:47.907Z,14.30
2018-09-17T01:41:17.244Z,14.30
2018-09-17T01:43:48.329Z,14.30
2018-09-17T01:46:16.956Z,14.30
2018-09-17T01:48:46.291Z,14.30
2018-09-17T01:51:15.178Z,14.30
2018-09-17T01:53:43.956Z,14.30
2018-09-17T01:56:14.489Z,14.30
2018-09-17T01:58:43.257Z,14.30
2018-09-17T02:01:12.926Z,14.30
2018-09-17T02:03:42.335Z,14.30
2018-09-17T02:06:11.211Z,14.30
2018-09-17T02:08:40.458Z,14.20
2018-09-17T02:11:09.703Z,14.20
2018-09-17T02:13:38.546Z,14.10
2018-09-17T02:16:07.408Z,14.10
2018-09-17T02:18:36.152Z,14.10
2018-09-17T02:21:04.895Z,14.10
2018-09-17T02:23:34.438Z,14.10
2018-09-17T02:26:13.960Z,14.10
2018-09-17T02:28:42.696Z,14.10
2018-09-17T02:31:12.862Z,14.00
2018-09-17T02:33:41.603Z,14.00
2018-09-17T02:36:10.193Z,14.00
2018-09-17T02:38:38.835Z,13.90
2018-09-17T02:41:07.720Z,13.80
2018-09-17T02:43:36.344Z,13.80
2018-09-17T02:46:05.028Z,13.80
2018-09-17T02:48:34.362Z,13.70
2018-09-17T02:51:02.990Z,13.70
2018-09-17T02:53:32.925Z,13.70
2018-09-17T02:56:02.882Z,13.70
2018-09-17T02:58:32.459Z,13.70
2018-09-17T03:01:01.067Z,13.70
2018-09-17T03:03:29.691Z,13.70
2018-09-17T03:05:59.146Z,13.60
2018-09-17T03:08:28.728Z,13.60
2018-09-17T03:10:59.244Z,13.60
2018-09-17T03:13:28.315Z,13.70
2018-09-17T03:15:57.767Z,13.70
2018-09-17T03:18:38.759Z,13.60
2018-09-17T03:21:08.745Z,13.60
2018-09-17T03:23:38.710Z,13.60
2018-09-17T03:26:09.127Z,13.60
2018-09-17T03:28:39.374Z,13.60
2018-09-17T03:31:08.015Z,13.60
2018-09-17T03:33:37.087Z,13.60
2018-09-17T03:36:06.403Z,13.60
2018-09-17T03:38:38.587Z,13.60
2018-09-17T03:41:08.261Z,13.50
2018-09-17T03:43:38.049Z,13.50
2018-09-17T03:46:06.780Z,13.50
2018-09-17T03:48:36.250Z,13.50
2018-09-17T03:51:05.631Z,13.50
2018-09-17T03:53:35.466Z,13.50
2018-09-17T03:56:05.710Z,13.50
2018-09-17T03:58:34.332Z,13.60
2018-09-17T04:01:05.007Z,13.60
2018-09-17T04:03:34.580Z,13.60
2018-09-17T04:06:05.275Z,13.60
2018-09-17T04:08:34.194Z,13.60
2018-09-17T04:11:04.013Z,13.70
2018-09-17T04:13:33.210Z,13.60
2018-09-17T04:16:01.818Z,13.60
2018-09-17T04:18:30.857Z,13.60
2018-09-17T04:21:00.114Z,13.60
2018-09-17T04:23:35.698Z,13.60
2018-09-17T04:26:05.785Z,13.60
2018-09-17T04:28:34.983Z,13.60
2018-09-17T04:31:03.632Z,13.60
2018-09-17T04:33:35.163Z,13.60
2018-09-17T04:36:03.814Z,13.60
2018-09-17T04:38:32.464Z,13.60
2018-09-17T04:41:01.139Z,13.60
2018-09-17T04:43:30.700Z,13.70
2018-09-17T04:45:59.490Z,13.70
2018-09-17T04:48:28.127Z,13.70
2018-09-17T04:50:57.250Z,13.70
2018-09-17T04:53:28.619Z,13.60
2018-09-17T04:55:57.262Z,13.60
2018-09-17T04:58:27.008Z,13.60
2018-09-17T05:00:57.515Z,13.60
2018-09-17T05:03:26.800Z,13.50
2018-09-17T05:05:55.699Z,13.50
2018-09-17T05:08:24.376Z,13.60
2018-09-17T05:11:20.381Z,13.60
2018-09-17T05:13:50.816Z,13.60
2018-09-17T05:16:20.337Z,13.60
2018-09-17T05:19:02.958Z,13.60
2018-09-17T05:21:50.436Z,13.60
2018-09-17T05:24:20.204Z,13.60
2018-09-17T05:26:48.897Z,13.60
2018-09-17T05:29:18.905Z,13.60
2018-09-17T05:31:54.807Z,13.60
2018-09-17T05:34:26.182Z,13.60
2018-09-17T05:36:59.510Z,13.60
2018-09-17T05:39:35.198Z,13.60
2018-09-17T05:42:11.218Z,13.60
2018-09-17T05:44:41.366Z,13.60
2018-09-17T05:47:12.121Z,13.70
2018-09-17T05:49:41.169Z,13.70
2018-09-17T05:52:26.818Z,13.70
2018-09-17T05:54:57.227Z,13.70
2018-09-17T05:57:26.412Z,13.70
2018-09-17T05:59:55.262Z,13.70
2018-09-17T06:02:24.876Z,13.80
2018-09-17T06:08:34.191Z,13.90
2018-09-17T06:13:49.681Z,14.10
2018-09-17T06:16:25.766Z,14.20
2018-09-17T06:18:55.924Z,14.30
2018-09-17T06:21:28.008Z,14.40
2018-09-17T06:23:56.722Z,14.50
2018-09-17T06:26:26.571Z,14.60
2018-09-17T06:28:55.566Z,14.60
2018-09-17T06:31:41.043Z,14.70
2018-09-17T06:37:03.374Z,15.00
2018-09-17T06:39:34.391Z,15.10
2018-09-17T06:42:10.681Z,15.20
2018-09-17T06:44:41.699Z,15.30
2018-09-17T06:47:11.000Z,15.40
2018-09-17T06:49:40.506Z,15.50
2018-09-17T06:52:10.273Z,15.70
2018-09-17T06:54:39.525Z,15.80
2018-09-17T06:57:08.063Z,15.90
2018-09-17T06:59:37.291Z,16.10
2018-09-17T07:02:06.583Z,16.20
2018-09-17T07:04:35.365Z,16.40
2018-09-17T07:07:07.313Z,16.60
2018-09-17T07:09:36.536Z,16.80
2018-09-17T07:12:06.454Z,17.00
2018-09-17T07:14:36.449Z,17.20
2018-09-17T07:17:05.739Z,17.50
2018-09-17T07:19:35.738Z,18.60
2018-09-17T07:22:05.373Z,22.90
2018-09-17T07:24:33.958Z,26.70
2018-09-17T07:27:03.811Z,29.10
2018-09-17T07:29:32.422Z,31.20
2018-09-17T07:32:00.996Z,32.80
2018-09-17T07:34:29.682Z,34.10
2018-09-17T07:36:59.952Z,35.80
2018-09-17T07:39:28.643Z,37.00
2018-09-17T07:41:57.708Z,37.90
2018-09-17T07:44:27.958Z,38.30
2018-09-17T07:46:57.740Z,38.60
2018-09-17T07:49:26.686Z,39.00
2018-09-17T07:51:56.105Z,40.00
2018-09-17T07:54:24.805Z,40.40
2018-09-17T07:56:53.889Z,40.10
2018-09-17T07:59:23.878Z,40.90
2018-09-17T08:01:53.428Z,41.70
2018-09-17T08:04:23.713Z,41.90
2018-09-17T08:06:53.001Z,41.40
2018-09-17T08:09:21.762Z,41.30
2018-09-17T08:11:56.713Z,41.00
2018-09-17T08:14:25.496Z,41.20
2018-09-17T08:16:54.357Z,41.40
2018-09-17T08:19:25.546Z,41.50
2018-09-17T08:21:54.212Z,42.00
2018-09-17T08:24:22.907Z,42.70
2018-09-17T08:26:52.224Z,43.70
2018-09-17T08:29:21.695Z,45.10
2018-09-17T08:31:50.281Z,46.20
2018-09-17T08:34:18.948Z,46.90
2018-09-17T08:36:47.845Z,47.20
2018-09-17T08:39:16.772Z,47.70
2018-09-17T08:41:46.963Z,48.30
2018-09-17T08:44:16.356Z,47.80
2018-09-17T08:46:46.004Z,48.30
2018-09-17T08:49:14.828Z,48.80
2018-09-17T08:51:45.101Z,48.90
2018-09-17T08:54:14.905Z,49.30
2018-09-17T08:56:45.990Z,49.40
2018-09-17T08:59:19.915Z,49.90
2018-09-17T09:01:53.839Z,49.00
2018-09-17T09:04:26.444Z,48.70
2018-09-17T09:06:55.034Z,49.40
2018-09-17T09:09:23.607Z,49.90
2018-09-17T09:12:01.116Z,50.70
2018-09-17T09:14:36.547Z,51.00
2018-09-17T09:17:06.666Z,50.90
2018-09-17T09:19:35.380Z,50.60
2018-09-17T09:22:04.123Z,50.10
2018-09-17T09:24:35.292Z,50.70
2018-09-17T09:27:03.967Z,50.30
2018-09-17T09:29:32.694Z,51.00
2018-09-17T09:32:01.291Z,51.60
2018-09-17T09:34:30.847Z,51.80
2018-09-17T09:37:00.207Z,51.60
2018-09-17T09:39:28.775Z,51.70
2018-09-17T09:41:58.388Z,51.00
2018-09-17T09:44:28.435Z,50.60
2018-09-17T09:46:57.690Z,50.10
2018-09-17T09:49:27.141Z,50.00
2018-09-17T09:51:55.731Z,50.70
2018-09-17T09:54:24.280Z,51.50
2018-09-17T09:56:53.053Z,51.90
2018-09-17T09:59:23.486Z,52.60
2018-09-17T10:01:58.234Z,52.80
2018-09-17T10:04:27.562Z,51.90
2018-09-17T10:06:57.034Z,51.40
2018-09-17T10:09:30.707Z,50.60
2018-09-17T10:12:04.466Z,50.60
2018-09-17T10:14:38.319Z,50.80
2018-09-17T10:17:12.256Z,51.00
2018-09-17T10:19:46.807Z,50.90
2018-09-17T10:22:15.400Z,51.20
2018-09-17T10:24:43.998Z,51.40
2018-09-17T10:27:12.546Z,51.70
2018-09-17T10:29:41.136Z,52.20
2018-09-17T10:32:09.834Z,51.80
2018-09-17T10:34:38.375Z,51.40
2018-09-17T10:37:07.458Z,51.70
2018-09-17T10:39:39.810Z,52.50
2018-09-17T10:42:09.132Z,52.40
2018-09-17T10:44:37.671Z,51.70
2018-09-17T10:47:06.269Z,50.80
2018-09-17T10:49:35.603Z,51.50
2018-09-17T10:52:04.886Z,51.50
2018-09-17T10:54:33.443Z,51.50
2018-09-17T10:57:26.297Z,49.90
2018-09-17T10:59:55.772Z,47.10
2018-09-17T11:02:25.057Z,45.80
2018-09-17T11:04:53.725Z,45.90
2018-09-17T11:07:23.049Z,46.20
2018-09-17T11:09:51.634Z,47.40
2018-09-17T11:12:20.214Z,48.00
2018-09-17T11:14:48.782Z,48.60
2018-09-17T11:17:19.466Z,49.20
2018-09-17T11:19:48.861Z,48.20
2018-09-17T11:22:18.327Z,47.20
2018-09-17T11:24:48.266Z,47.80
2018-09-17T11:27:16.794Z,47.80
2018-09-17T11:29:45.405Z,47.40
2018-09-17T11:32:14.887Z,46.30
2018-09-17T11:34:44.729Z,44.50
2018-09-17T11:37:13.295Z,43.00
2018-09-17T11:39:42.088Z,43.50
2018-09-17T11:42:10.663Z,44.10
2018-09-17T11:44:39.247Z,43.90
2018-09-17T11:47:07.917Z,42.40
2018-09-17T11:49:37.058Z,43.30
2018-09-17T11:52:06.313Z,43.30
2018-09-17T11:54:34.886Z,43.00
2018-09-17T11:57:03.455Z,42.80
2018-09-17T11:59:32.026Z,43.30
2018-09-17T12:02:05.243Z,43.40
2018-09-17T12:04:39.040Z,42.60
2018-09-17T12:07:13.478Z,41.90
2018-09-17T12:09:42.606Z,41.30
2018-09-17T12:12:11.166Z,39.20
2018-09-17T12:14:39.740Z,36.90
2018-09-17T12:17:08.302Z,35.30
2018-09-17T12:19:36.921Z,34.20
2018-09-17T12:22:05.562Z,33.60
2018-09-17T12:24:34.144Z,33.00
2018-09-17T12:27:02.695Z,32.70
2018-09-17T12:29:31.273Z,32.60
2018-09-17T12:31:59.942Z,32.50
2018-09-17T12:34:29.419Z,32.30
2018-09-17T12:36:57.945Z,31.80
2018-09-17T12:39:28.598Z,31.50
2018-09-17T12:41:57.365Z,31.30
2018-09-17T12:44:26.037Z,31.20
2018-09-17T12:46:54.575Z,31.00
2018-09-17T12:49:23.170Z,31.00
2018-09-17T12:51:52.411Z,31.20
2018-09-17T12:54:20.910Z,31.00
2018-09-17T12:56:49.741Z,30.80
2018-09-17T12:59:18.680Z,31.00
2018-09-17T13:01:47.246Z,31.20
2018-09-17T13:04:16.858Z,31.30
2018-09-17T13:06:46.049Z,31.40
2018-09-17T13:09:14.614Z,31.90
2018-09-17T13:11:44.145Z,32.50
2018-09-17T13:14:13.830Z,33.00
2018-09-17T13:16:44.915Z,33.20
2018-09-17T13:19:13.483Z,33.00
2018-09-17T13:21:42.057Z,32.50
2018-09-17T13:24:14.558Z,32.40
2018-09-17T13:26:44.935Z,33.20
2018-09-17T13:29:13.462Z,33.50
2018-09-17T13:31:42.116Z,34.10
2018-09-17T13:34:14.201Z,34.80
2018-09-17T13:36:42.848Z,34.80
2018-09-17T13:39:11.412Z,34.70
2018-09-17T13:41:40.320Z,35.00
2018-09-17T13:44:08.867Z,35.00
2018-09-17T13:46:38.272Z,35.00
2018-09-17T13:49:06.892Z,35.30
2018-09-17T13:51:35.464Z,35.10
2018-09-17T13:54:04.794Z,34.70
2018-09-17T13:56:33.543Z,34.10
2018-09-17T13:59:02.288Z,33.50
2018-09-17T14:01:30.907Z,33.40
2018-09-17T14:03:59.460Z,33.00
2018-09-17T14:06:28.794Z,33.00
2018-09-17T14:08:58.209Z,33.00
2018-09-17T14:11:26.884Z,32.90
2018-09-17T14:13:56.323Z,32.80
2018-09-17T14:16:30.299Z,32.60
2018-09-17T14:18:59.329Z,32.30
2018-09-17T14:21:28.563Z,32.10
2018-09-17T14:23:57.624Z,32.20
2018-09-17T14:26:27.693Z,32.20
2018-09-17T14:28:57.862Z,32.00
2018-09-17T14:31:32.531Z,32.00
2018-09-17T14:34:01.101Z,31.90
2018-09-17T14:36:29.838Z,31.50
2018-09-17T14:38:58.379Z,31.10
2018-09-17T14:41:27.731Z,31.00
2018-09-17T14:43:56.370Z,30.50
2018-09-17T14:46:25.019Z,30.10
2018-09-17T14:48:53.522Z,29.80
2018-09-17T14:51:22.974Z,29.50
2018-09-17T14:53:52.838Z,29.30
2018-09-17T14:56:21.625Z,29.10
2018-09-17T14:58:50.258Z,29.00
2018-09-17T15:01:29.099Z,28.70
2018-09-17T15:04:03.699Z,28.60
2018-09-17T15:06:32.390Z,28.30
2018-09-17T15:09:01.029Z,28.20
2018-09-17T15:11:29.625Z,28.10
2018-09-17T15:13:59.720Z,27.90
2018-09-17T15:16:30.344Z,27.80
2018-09-17T15:18:59.695Z,27.70
2018-09-17T15:21:28.867Z,27.70
2018-09-17T15:24:04.265Z,27.70
2018-09-17T15:26:32.912Z,27.70
2018-09-17T15:29:01.451Z,27.60
2018-09-17T15:31:30.837Z,27.60
2018-09-17T15:33:59.402Z,27.60
2018-09-17T15:36:28.512Z,27.50
2018-09-17T15:38:57.042Z,27.50
2018-09-17T15:41:26.371Z,27.50
2018-09-17T15:43:55.372Z,27.50
2018-09-17T15:46:23.895Z,27.40
2018-09-17T15:48:52.467Z,27.30
2018-09-17T15:51:21.013Z,27.30
2018-09-17T15:53:51.886Z,27.20
2018-09-17T15:56:22.207Z,27.10
2018-09-17T15:58:51.418Z,27.10
2018-09-17T16:01:20.118Z,27.10
2018-09-17T16:03:50.812Z,27.10
2018-09-17T16:06:20.114Z,27.10
2018-09-17T16:08:48.800Z,27.10
2018-09-17T16:11:17.255Z,27.00
2018-09-17T16:13:45.933Z,27.10
2018-09-17T16:16:16.406Z,27.00
2018-09-17T16:18:46.749Z,26.90
2018-09-17T16:21:17.623Z,26.80
2018-09-17T16:23:47.338Z,26.70
2018-09-17T16:26:17.864Z,26.60
2018-09-17T16:28:48.013Z,26.40
2018-09-17T16:31:17.508Z,26.20
2018-09-17T16:33:47.453Z,26.10
2018-09-17T16:36:19.576Z,25.90
2018-09-17T16:38:50.367Z,25.70
2018-09-17T16:41:20.076Z,25.50
2018-09-17T16:43:50.068Z,25.40
2018-09-17T16:46:19.805Z,25.30
2018-09-17T16:48:49.729Z,25.10
2018-09-17T16:51:19.788Z,25.00
2018-09-17T16:53:49.471Z,24.70
2018-09-17T16:56:23.250Z,24.60
2018-09-17T16:58:53.308Z,24.20
2018-09-17T17:01:23.116Z,23.80
2018-09-17T17:03:52.868Z,23.70
2018-09-17T17:06:23.013Z,23.50
2018-09-17T17:08:53.326Z,23.40
2018-09-17T17:11:23.373Z,23.20
2018-09-17T17:13:53.524Z,23.10
2018-09-17T17:16:23.466Z,22.90
2018-09-17T17:18:53.061Z,22.80
2018-09-17T17:21:22.742Z,22.70
2018-09-17T17:23:52.447Z,22.60
2018-09-17T17:26:22.074Z,22.50
2018-09-17T17:28:51.722Z,22.30
2018-09-17T17:31:21.210Z,22.30
2018-09-17T17:33:50.768Z,22.20
2018-09-17T17:36:21.212Z,22.10
2018-09-17T17:38:51.366Z,21.90
2018-09-17T17:41:20.912Z,21.70
2018-09-17T17:43:50.403Z,21.60
2018-09-17T17:46:19.960Z,21.50
2018-09-17T17:48:49.417Z,21.40
2018-09-17T17:51:19.607Z,21.30
2018-09-17T17:53:48.916Z,21.10
2018-09-17T17:56:19.110Z,21.00
2018-09-17T17:58:49.003Z,20.90
2018-09-17T18:01:19.706Z,20.80
2018-09-17T18:03:49.136Z,20.60
2018-09-17T18:06:18.861Z,20.50
2018-09-17T18:08:49.552Z,20.40
2018-09-17T18:11:18.937Z,20.30
2018-09-17T18:13:48.781Z,20.30
2018-09-17T18:16:19.521Z,20.20
2018-09-17T18:18:50.521Z,20.00
2018-09-17T18:21:19.944Z,19.90
2018-09-17T18:23:49.161Z,19.80
2018-09-17T18:26:20.275Z,19.70
2018-09-17T18:28:49.733Z,19.70
2018-09-17T18:31:19.271Z,19.60
2018-09-17T18:33:47.846Z,19.50
2018-09-17T18:36:17.407Z,19.40
2018-09-17T18:38:47.833Z,19.30
2018-09-17T18:41:16.630Z,19.30
2018-09-17T18:43:45.189Z,19.10
2018-09-17T18:46:14.376Z,19.10
2018-09-17T18:48:43.899Z,19.10
2018-09-17T18:51:12.946Z,19.00
2018-09-17T18:53:41.511Z,18.90
2018-09-17T19:00:39.606Z,18.80
2018-09-17T19:03:08.493Z,18.80
2018-09-17T19:05:37.682Z,18.50
2018-09-17T19:08:06.271Z,18.40
2018-09-17T19:10:34.886Z,18.30
2018-09-17T19:13:04.207Z,18.20
2018-09-17T19:15:38.020Z,18.20
2018-09-17T19:18:12.724Z,18.10
2018-09-17T19:20:41.429Z,18.10
2018-09-17T19:23:15.805Z,18.00
2018-09-17T19:25:45.108Z,17.90
2018-09-17T19:28:19.045Z,17.80
2018-09-17T19:30:47.800Z,17.80
2018-09-17T19:33:16.967Z,17.80
2018-09-17T19:35:46.690Z,17.70
2018-09-17T19:38:20.889Z,17.70
2018-09-17T19:40:49.541Z,17.70
2018-09-17T19:43:18.145Z,17.60
2018-09-17T19:45:52.603Z,17.60
2018-09-17T19:48:21.313Z,17.60
2018-09-17T19:50:55.255Z,17.50
2018-09-17T19:53:25.714Z,17.40
2018-09-17T19:55:56.752Z,17.40
2018-09-17T19:58:30.475Z,17.30
2018-09-17T20:00:59.815Z,17.30
2018-09-17T20:03:28.620Z,17.30
2018-09-17T20:06:03.042Z,17.30
2018-09-17T20:08:31.798Z,17.20
2018-09-17T20:11:02.420Z,17.20
2018-09-17T20:13:32.546Z,17.10
2018-09-17T20:16:02.678Z,17.10
2018-09-17T20:18:32.810Z,17.10
2018-09-17T20:21:03.231Z,17.00
2018-09-17T20:23:31.874Z,16.90
2018-09-17T20:26:00.871Z,16.90
2018-09-17T20:28:30.139Z,16.90
2018-09-17T20:31:00.271Z,16.80
2018-09-17T20:33:32.338Z,16.80
2018-09-17T20:36:01.341Z,16.70
2018-09-17T20:38:32.865Z,16.70
2018-09-17T20:41:01.637Z,16.70
2018-09-17T20:43:30.607Z,16.70
2018-09-17T20:45:59.433Z,16.60
2018-09-17T20:48:28.346Z,16.60
2018-09-17T20:50:57.955Z,16.50
2018-09-17T20:53:27.778Z,16.50
2018-09-17T20:55:58.165Z,16.40
2018-09-17T20:58:37.762Z,16.40
2018-09-17T21:01:06.889Z,16.40
2018-09-17T21:03:36.223Z,16.30
2018-09-17T21:06:05.795Z,16.30
2018-09-17T21:08:44.550Z,16.30
2018-09-17T21:11:14.290Z,16.30
2018-09-17T21:13:44.774Z,16.20
2018-09-17T21:16:14.415Z,16.20
2018-09-17T21:18:43.111Z,16.20
2018-09-17T21:21:12.438Z,16.20
2018-09-17T21:23:41.812Z,16.20
2018-09-17T21:26:10.721Z,16.20
2018-09-17T21:28:39.670Z,16.10
2018-09-17T21:31:08.349Z,16.10
2018-09-17T21:33:36.858Z,16.10
2018-09-17T21:36:11.158Z,16.00
2018-09-17T21:38:39.866Z,16.00
2018-09-17T21:41:09.203Z,16.00
2018-09-17T21:43:37.734Z,16.00
2018-09-17T21:46:06.784Z,15.90
2018-09-17T21:48:35.493Z,15.90
2018-09-17T21:51:04.042Z,15.80
2018-09-17T21:53:33.384Z,15.80
2018-09-17T21:56:02.343Z,15.80
2018-09-17T21:58:30.955Z,15.80
2018-09-17T22:01:04.444Z,15.80
2018-09-17T22:03:34.206Z,15.70
2018-09-17T22:06:02.771Z,15.60
2018-09-17T22:08:31.631Z,15.60
2018-09-17T22:11:01.483Z,15.50
2018-09-17T22:13:34.951Z,15.60
2018-09-17T22:16:03.495Z,15.60
2018-09-17T22:18:32.031Z,15.60
2018-09-17T22:21:00.594Z,15.60
2018-09-17T22:23:29.137Z,15.60
2018-09-17T22:25:58.250Z,15.50
2018-09-17T22:28:27.928Z,15.50
2018-09-17T22:30:56.495Z,15.60
2018-09-17T22:33:25.355Z,15.60
2018-09-17T22:35:55.210Z,15.70
2018-09-17T22:38:24.438Z,15.70
2018-09-17T22:40:52.966Z,15.70
2018-09-17T22:43:21.578Z,15.60
2018-09-17T22:45:50.720Z,15.60
2018-09-17T22:48:19.238Z,15.60
2018-09-17T22:50:48.375Z,15.70
2018-09-17T22:53:17.235Z,15.70
2018-09-17T22:55:45.793Z,15.70
2018-09-17T22:58:14.658Z,15.70
2018-09-17T23:00:44.602Z,15.70
2018-09-17T23:03:13.136Z,15.70
2018-09-17T23:05:41.692Z,15.70
2018-09-17T23:08:10.282Z,15.60
2018-09-17T23:10:38.919Z,15.60
2018-09-17T23:13:08.442Z,15.60
2018-09-17T23:15:37.701Z,15.50
2018-09-17T23:18:06.260Z,15.50
2018-09-17T23:20:34.787Z,15.50
2018-09-17T23:23:03.987Z,15.50
2018-09-17T23:25:32.809Z,15.50
2018-09-17T23:28:01.841Z,15.40
2018-09-17T23:30:31.966Z,15.40
2018-09-17T23:33:05.905Z,15.30
2018-09-17T23:35:34.724Z,15.30
2018-09-17T23:38:03.295Z,15.30
2018-09-17T23:40:32.218Z,15.30
2018-09-17T23:43:01.385Z,15.30
2018-09-17T23:45:29.938Z,15.20
2018-09-17T23:48:01.179Z,15.20
2018-09-17T23:50:29.847Z,15.20
2018-09-17T23:52:58.355Z,15.10
2018-09-17T23:55:26.916Z,15.10
2018-09-17T23:57:56.135Z,15.20
